createdAt,value
2022-09-14T00:00:12.521Z,2.60
2022-09-14T00:03:00.014Z,3.00
2022-09-14T00:05:47.806Z,3.17
2022-09-14T00:08:37.415Z,2.85
2022-09-14T00:11:28.762Z,2.67
2022-09-14T00:14:18.265Z,2.22
2022-09-14T00:17:05.857Z,3.78
2022-09-14T00:19:53.750Z,2.75
2022-09-14T00:22:41.900Z,2.70
2022-09-14T00:25:29.981Z,3.22
2022-09-14T00:28:18.106Z,2.70
2022-09-14T00:31:06.501Z,2.97
2022-09-14T00:33:54.491Z,2.80
2022-09-14T00:36:46.464Z,2.65
2022-09-14T00:39:33.925Z,2.65
2022-09-14T00:42:21.380Z,2.75
2022-09-14T00:45:21.041Z,3.30
2022-09-14T00:48:09.074Z,3.50
2022-09-14T00:50:57.006Z,2.47
2022-09-14T00:53:44.559Z,3.35
2022-09-14T00:56:32.185Z,3.00
2022-09-14T00:59:31.481Z,2.75
2022-09-14T01:02:23.133Z,2.13
2022-09-14T01:05:12.085Z,2.60
2022-09-14T01:08:19.347Z,2.83
2022-09-14T01:11:18.554Z,2.63
2022-09-14T01:14:42.469Z,3.05
2022-09-14T01:17:47.049Z,2.47
2022-09-14T01:21:10.374Z,2.53
2022-09-14T01:24:17.026Z,2.80
2022-09-14T01:27:21.710Z,3.03
2022-09-14T01:30:15.345Z,2.50
2022-09-14T01:33:21.983Z,3.08
2022-09-14T01:36:14.394Z,2.45
2022-09-14T01:39:03.358Z,2.47
2022-09-14T01:41:54.229Z,2.70
2022-09-14T01:44:47.562Z,2.90
2022-09-14T01:47:46.997Z,2.05
2022-09-14T01:50:47.296Z,3.00
2022-09-14T01:53:50.040Z,2.75
2022-09-14T01:56:51.184Z,2.67
2022-09-14T01:59:46.307Z,2.78
2022-09-14T02:02:44.790Z,2.63
2022-09-14T02:05:59.886Z,2.47
2022-09-14T02:08:47.969Z,2.47
2022-09-14T02:11:36.039Z,2.80
2022-09-14T02:14:24.049Z,3.10
2022-09-14T02:17:12.270Z,2.80
2022-09-14T02:20:04.984Z,2.78
2022-09-14T02:22:53.161Z,2.78
2022-09-14T02:25:41.259Z,2.80
2022-09-14T02:28:28.834Z,2.85
2022-09-14T02:31:42.077Z,3.28
2022-09-14T02:34:45.640Z,2.55
2022-09-14T02:38:08.102Z,2.58
2022-09-14T02:41:03.074Z,2.50
2022-09-14T02:44:27.782Z,3.65
2022-09-14T02:47:38.914Z,2.45
2022-09-14T02:51:12.415Z,1.75
2022-09-14T02:54:20.674Z,2.30
2022-09-14T02:57:09.885Z,2.63
2022-09-14T02:59:57.367Z,2.42
2022-09-14T03:02:44.765Z,2.13
2022-09-14T03:05:33.025Z,3.05
2022-09-14T03:08:20.414Z,3.17
2022-09-14T03:11:08.520Z,2.45
2022-09-14T03:13:55.965Z,2.92
2022-09-14T03:16:43.504Z,2.87
2022-09-14T03:19:30.967Z,2.70
2022-09-14T03:22:18.409Z,2.60
2022-09-14T03:25:06.859Z,3.08
2022-09-14T03:27:59.909Z,3.30
2022-09-14T03:30:47.510Z,2.53
2022-09-14T03:33:35.364Z,3.10
2022-09-14T03:36:25.392Z,3.03
2022-09-14T03:39:12.809Z,2.47
2022-09-14T03:42:00.200Z,2.70
2022-09-14T03:44:47.616Z,2.95
2022-09-14T03:47:35.035Z,2.22
2022-09-14T03:50:22.544Z,2.75
2022-09-14T03:53:10.093Z,3.00
2022-09-14T03:55:58.125Z,2.80
2022-09-14T03:58:47.662Z,2.63
2022-09-14T04:01:35.213Z,3.00
2022-09-14T04:04:22.804Z,2.90
2022-09-14T04:07:10.319Z,3.03
2022-09-14T04:09:57.885Z,2.80
2022-09-14T04:12:45.399Z,2.63
2022-09-14T04:15:32.830Z,3.57
2022-09-14T04:18:20.254Z,2.97
2022-09-14T04:21:13.794Z,3.30
2022-09-14T04:24:14.537Z,2.72
2022-09-14T04:27:03.206Z,2.38
2022-09-14T04:29:51.043Z,3.10
2022-09-14T04:32:38.517Z,3.50
2022-09-14T04:35:25.899Z,2.88
2022-09-14T04:38:13.311Z,2.80
2022-09-14T04:41:14.351Z,3.05
2022-09-14T04:44:02.120Z,3.38
2022-09-14T04:46:49.621Z,2.93
2022-09-14T04:49:37.074Z,2.20
2022-09-14T04:52:24.844Z,2.83
2022-09-14T04:55:12.249Z,3.90
2022-09-14T04:57:59.685Z,3.30
2022-09-14T05:00:47.079Z,2.67
2022-09-14T05:03:35.979Z,3.55
2022-09-14T05:06:27.434Z,3.13
2022-09-14T05:09:18.685Z,2.53
2022-09-14T05:12:06.669Z,2.70
2022-09-14T05:14:54.104Z,2.75
2022-09-14T05:17:41.534Z,2.83
2022-09-14T05:20:29.767Z,2.60
2022-09-14T05:23:17.174Z,2.78
2022-09-14T05:26:06.565Z,3.47
2022-09-14T05:28:58.109Z,2.67
2022-09-14T05:31:46.850Z,3.65
2022-09-14T05:34:34.408Z,3.40
2022-09-14T05:37:21.846Z,3.25
2022-09-14T05:40:10.394Z,4.00
2022-09-14T05:42:58.055Z,2.75
2022-09-14T05:45:45.505Z,3.22
2022-09-14T05:48:34.644Z,3.85
2022-09-14T05:51:25.658Z,2.90
2022-09-14T05:54:13.126Z,3.38
2022-09-14T05:57:00.534Z,2.97
2022-09-14T05:59:47.954Z,2.80
2022-09-14T06:02:35.360Z,3.40
2022-09-14T06:05:25.664Z,3.03
2022-09-14T06:08:13.085Z,2.92
2022-09-14T06:11:15.155Z,3.30
2022-09-14T06:14:03.050Z,3.38
2022-09-14T06:16:50.665Z,3.83
2022-09-14T06:19:38.129Z,2.80
2022-09-14T06:22:25.529Z,3.60
2022-09-14T06:25:12.955Z,3.55
2022-09-14T06:28:00.404Z,3.00
2022-09-14T06:30:47.857Z,3.53
2022-09-14T06:33:35.951Z,3.53
2022-09-14T06:36:27.559Z,3.33
2022-09-14T06:39:15.104Z,2.53
2022-09-14T06:42:02.750Z,3.30
2022-09-14T06:44:51.086Z,3.50
2022-09-14T06:47:38.515Z,3.67
2022-09-14T06:50:26.695Z,3.38
2022-09-14T06:53:14.243Z,4.13
2022-09-14T06:56:01.745Z,4.25
2022-09-14T06:58:50.700Z,3.47
2022-09-14T07:01:40.849Z,3.90
2022-09-14T07:04:28.319Z,5.10
2022-09-14T07:07:16.701Z,3.55
2022-09-14T07:10:04.744Z,3.42
2022-09-14T07:12:52.146Z,3.95
2022-09-14T07:15:39.560Z,3.63
2022-09-14T07:18:29.156Z,3.67
2022-09-14T07:21:19.583Z,4.30
2022-09-14T07:24:07.709Z,4.35
2022-09-14T07:26:55.129Z,3.38
2022-09-14T07:29:42.565Z,3.22
2022-09-14T07:32:30.652Z,3.80
2022-09-14T07:35:18.075Z,4.18
2022-09-14T07:38:05.443Z,4.72
2022-09-14T07:40:53.410Z,4.78
2022-09-14T07:43:40.879Z,4.88
2022-09-14T07:46:33.499Z,4.80
2022-09-14T07:49:22.479Z,4.18
2022-09-14T07:52:11.340Z,10.50
2022-09-14T07:54:58.844Z,4.90
2022-09-14T07:57:56.026Z,4.57
2022-09-14T08:00:44.684Z,4.75
2022-09-14T08:03:32.366Z,3.92
2022-09-14T08:06:26.499Z,4.30
2022-09-14T08:09:14.390Z,4.55
2022-09-14T08:12:02.085Z,5.35
2022-09-14T08:14:51.400Z,4.50
2022-09-14T08:17:39.135Z,4.75
2022-09-14T08:20:26.595Z,4.43
2022-09-14T08:23:14.003Z,4.78
2022-09-14T08:26:08.384Z,4.47
2022-09-14T08:28:57.065Z,4.90
2022-09-14T08:31:46.208Z,4.90
2022-09-14T08:34:34.462Z,4.80
2022-09-14T08:37:22.094Z,5.13
2022-09-14T08:40:13.633Z,5.03
2022-09-14T08:43:04.299Z,5.07
2022-09-14T08:46:06.365Z,5.20
2022-09-14T08:48:54.544Z,4.35
2022-09-14T08:51:43.166Z,5.50
2022-09-14T08:54:33.506Z,4.22
2022-09-14T08:57:43.075Z,3.90
2022-09-14T09:00:54.196Z,3.45
2022-09-14T09:04:03.073Z,4.25
2022-09-14T09:07:05.400Z,3.78
2022-09-14T09:09:57.051Z,3.92
2022-09-14T09:13:06.785Z,3.95
2022-09-14T09:16:01.085Z,3.63
2022-09-14T09:19:05.976Z,3.85
2022-09-14T09:21:54.480Z,4.03
2022-09-14T09:24:47.830Z,3.95
2022-09-14T09:27:35.271Z,3.60
2022-09-14T09:30:22.805Z,3.95
2022-09-14T09:33:24.094Z,4.15
2022-09-14T09:36:15.255Z,3.35
2022-09-14T09:39:05.409Z,3.72
2022-09-14T09:42:12.454Z,3.30
2022-09-14T09:45:06.163Z,3.88
2022-09-14T09:47:53.610Z,4.38
2022-09-14T09:51:27.119Z,3.20
2022-09-14T09:54:14.494Z,3.42
2022-09-14T09:57:07.586Z,2.85
2022-09-14T10:00:23.604Z,3.13
2022-09-14T10:03:36.130Z,3.40
2022-09-14T10:06:23.621Z,3.17
2022-09-14T10:09:21.314Z,3.70
2022-09-14T10:12:16.840Z,2.67
2022-09-14T10:15:22.216Z,2.53
2022-09-14T10:18:18.956Z,3.20
2022-09-14T10:21:09.769Z,3.15
2022-09-14T10:24:26.384Z,3.28
2022-09-14T10:27:42.164Z,2.42
2022-09-14T10:30:43.772Z,3.03
2022-09-14T10:33:31.239Z,3.00
2022-09-14T10:36:32.314Z,2.60
2022-09-14T10:39:39.209Z,3.22
2022-09-14T10:42:54.738Z,3.13
2022-09-14T10:45:53.250Z,2.50
2022-09-14T10:49:10.266Z,2.70
2022-09-14T10:52:24.389Z,2.90
2022-09-14T10:55:34.557Z,2.50
2022-09-14T10:59:02.872Z,2.40
2022-09-14T11:02:29.728Z,3.17
2022-09-14T11:05:38.164Z,2.40
2022-09-14T11:08:47.906Z,2.75
2022-09-14T11:11:53.524Z,2.70
2022-09-14T11:15:02.529Z,2.97
2022-09-14T11:18:27.660Z,2.47
2022-09-14T11:21:44.544Z,2.63
2022-09-14T11:25:01.274Z,2.45
2022-09-14T11:28:27.625Z,2.70
2022-09-14T11:31:30.854Z,2.60
2022-09-14T11:34:41.810Z,2.75
2022-09-14T11:37:47.623Z,2.53
2022-09-14T11:41:45.094Z,2.53
2022-09-14T11:44:42.385Z,2.78
2022-09-14T11:47:41.994Z,2.67
2022-09-14T11:50:33.184Z,2.92
2022-09-14T11:53:24.439Z,2.33
2022-09-14T11:56:34.097Z,2.88
2022-09-14T11:59:42.519Z,3.25
2022-09-14T12:02:45.652Z,2.65
2022-09-14T12:05:35.110Z,2.85
2022-09-14T12:08:38.174Z,2.70
2022-09-14T12:11:34.710Z,3.00
2022-09-14T12:14:28.776Z,3.20
2022-09-14T12:17:39.743Z,3.45
2022-09-14T12:20:37.753Z,2.60
2022-09-14T12:23:37.312Z,2.90
2022-09-14T12:26:31.663Z,2.47
2022-09-14T12:29:34.205Z,2.58
2022-09-14T12:32:39.235Z,2.92
2022-09-14T12:35:46.716Z,2.70
2022-09-14T12:39:02.469Z,2.13
2022-09-14T12:41:49.841Z,2.90
2022-09-14T12:44:46.209Z,2.58
2022-09-14T12:47:35.799Z,2.33
2022-09-14T12:50:23.526Z,2.60
2022-09-14T12:53:30.230Z,2.70
2022-09-14T12:56:35.754Z,2.42
2022-09-14T13:00:09.983Z,2.38
2022-09-14T13:03:21.590Z,2.75
2022-09-14T13:06:13.809Z,2.40
2022-09-14T13:09:07.405Z,2.42
2022-09-14T13:12:07.474Z,2.40
2022-09-14T13:15:02.844Z,2.38
2022-09-14T13:18:18.908Z,2.60
2022-09-14T13:21:25.078Z,2.38
2022-09-14T13:24:43.293Z,2.40
2022-09-14T13:27:33.998Z,2.00
2022-09-14T13:30:27.214Z,1.85
2022-09-14T13:33:18.715Z,2.20
2022-09-14T13:36:06.839Z,2.30
2022-09-14T13:38:55.993Z,2.20
2022-09-14T13:41:45.009Z,2.05
2022-09-14T13:44:47.181Z,2.30
2022-09-14T13:47:35.045Z,1.70
2022-09-14T13:50:25.507Z,2.15
2022-09-14T13:53:48.978Z,2.08
2022-09-14T13:56:36.634Z,1.80
2022-09-14T13:59:24.160Z,1.45
2022-09-14T14:02:14.283Z,3.53
2022-09-14T14:05:03.446Z,2.33
2022-09-14T14:07:52.056Z,2.20
2022-09-14T14:10:47.504Z,2.35
2022-09-14T14:13:38.354Z,1.85
2022-09-14T14:16:30.213Z,1.90
2022-09-14T14:19:30.050Z,1.95
2022-09-14T14:22:32.634Z,2.00
2022-09-14T14:25:29.088Z,3.53
2022-09-14T14:28:30.479Z,6.05
2022-09-14T14:31:22.088Z,2.40
2022-09-14T14:34:30.454Z,2.05
2022-09-14T14:37:17.899Z,2.30
2022-09-14T14:40:06.219Z,2.05
2022-09-14T14:42:55.301Z,2.20
2022-09-14T14:45:42.841Z,2.17
2022-09-14T14:48:31.604Z,2.60
2022-09-14T14:51:19.109Z,2.17
2022-09-14T14:54:07.365Z,2.00
2022-09-14T14:56:56.004Z,1.50
2022-09-14T14:59:43.465Z,2.10
2022-09-14T15:02:30.870Z,1.77
2022-09-14T15:05:19.719Z,1.85
2022-09-14T15:08:07.245Z,1.92
2022-09-14T15:10:57.831Z,1.70
2022-09-14T15:13:46.729Z,2.40
2022-09-14T15:16:34.310Z,2.15
2022-09-14T15:19:21.806Z,2.17
2022-09-14T15:22:10.705Z,1.70
2022-09-14T15:24:58.221Z,1.42
2022-09-14T15:27:46.084Z,2.00
2022-09-14T15:30:33.546Z,1.50
2022-09-14T15:33:21.024Z,1.85
2022-09-14T15:36:08.555Z,1.60
2022-09-14T15:38:57.018Z,1.70
2022-09-14T15:41:44.584Z,2.00
2022-09-14T15:44:33.105Z,1.77
2022-09-14T15:47:20.559Z,1.50
2022-09-14T15:50:08.516Z,1.50
2022-09-14T15:53:00.451Z,2.42
2022-09-14T15:55:50.179Z,1.67
2022-09-14T15:58:37.734Z,2.00
2022-09-14T16:01:25.673Z,2.45
2022-09-14T16:04:13.999Z,1.90
2022-09-14T16:07:02.072Z,1.75
2022-09-14T16:09:49.578Z,2.28
2022-09-14T16:12:36.985Z,1.95
2022-09-14T16:15:24.920Z,2.20
2022-09-14T16:18:12.371Z,2.22
2022-09-14T16:21:13.709Z,2.55
2022-09-14T16:24:06.650Z,2.55
2022-09-14T16:26:54.332Z,2.58
2022-09-14T16:29:41.805Z,2.30
2022-09-14T16:32:29.266Z,2.55
2022-09-14T16:35:16.771Z,3.03
2022-09-14T16:38:04.805Z,2.72
2022-09-14T16:40:59.984Z,3.35
2022-09-14T16:43:47.786Z,3.95
2022-09-14T16:46:35.526Z,3.33
2022-09-14T16:49:27.222Z,3.72
2022-09-14T16:52:15.195Z,3.67
2022-09-14T16:55:02.655Z,3.33
2022-09-14T16:57:50.205Z,3.53
2022-09-14T17:00:40.271Z,3.92
2022-09-14T17:03:31.792Z,3.90
2022-09-14T17:06:26.669Z,3.85
2022-09-14T17:09:19.244Z,3.80
2022-09-14T17:12:07.835Z,3.42
2022-09-14T17:14:55.220Z,3.85
2022-09-14T17:17:42.735Z,3.28
2022-09-14T17:20:30.204Z,3.97
2022-09-14T17:23:17.590Z,3.17
2022-09-14T17:26:08.809Z,3.15
2022-09-14T17:28:58.570Z,2.83
2022-09-14T17:31:46.419Z,3.25
2022-09-14T17:34:34.050Z,3.17
2022-09-14T17:37:21.499Z,3.10
2022-09-14T17:40:10.936Z,3.03
2022-09-14T17:42:58.494Z,2.92
2022-09-14T17:45:55.089Z,3.40
2022-09-14T17:48:43.425Z,2.78
2022-09-14T17:51:32.555Z,3.40
2022-09-14T17:55:31.762Z,3.28
2022-09-14T17:58:19.939Z,2.17
2022-09-14T18:01:18.352Z,1.15
2022-09-14T18:04:12.166Z,1.42
2022-09-14T18:06:59.669Z,0.98
2022-09-14T18:09:47.185Z,1.90
2022-09-14T18:12:36.573Z,2.35
2022-09-14T18:15:23.969Z,2.47
2022-09-14T18:18:11.944Z,2.25
2022-09-14T18:21:01.341Z,2.45
2022-09-14T18:23:51.735Z,1.85
2022-09-14T18:26:39.332Z,1.75
2022-09-14T18:29:27.611Z,1.58
2022-09-14T18:32:15.109Z,1.67
2022-09-14T18:35:02.700Z,1.50
2022-09-14T18:37:50.105Z,1.70
2022-09-14T18:40:38.602Z,1.35
2022-09-14T18:43:26.275Z,1.75
2022-09-14T18:46:14.980Z,1.35
2022-09-14T18:49:03.444Z,2.13
2022-09-14T18:51:51.184Z,1.50
2022-09-14T18:54:38.796Z,1.33
2022-09-14T18:57:28.430Z,1.60
2022-09-14T19:00:18.784Z,1.40
2022-09-14T19:03:07.184Z,1.42
2022-09-14T19:05:55.629Z,1.58
2022-09-14T19:08:44.783Z,1.40
2022-09-14T19:11:33.390Z,1.65
2022-09-14T19:14:22.176Z,1.60
2022-09-14T19:17:09.714Z,1.70
2022-09-14T19:19:57.392Z,1.70
2022-09-14T19:22:44.864Z,1.75
2022-09-14T19:25:38.295Z,1.67
2022-09-14T19:28:25.745Z,1.98
2022-09-14T19:31:20.443Z,2.33
2022-09-14T19:34:08.253Z,1.80
2022-09-14T19:36:56.229Z,1.75
2022-09-14T19:39:43.930Z,1.85
2022-09-14T19:42:31.344Z,1.95
2022-09-14T19:45:19.335Z,1.90
2022-09-14T19:48:06.904Z,2.30
2022-09-14T19:51:03.289Z,1.95
2022-09-14T19:53:56.438Z,2.30
2022-09-14T19:56:46.083Z,2.10
2022-09-14T19:59:33.606Z,1.92
2022-09-14T20:02:21.225Z,1.70
2022-09-14T20:05:10.702Z,2.05
2022-09-14T20:07:58.485Z,1.80
2022-09-14T20:10:45.946Z,2.05
2022-09-14T20:13:34.854Z,1.92
2022-09-14T20:16:31.848Z,2.10
2022-09-14T20:19:23.235Z,2.13
2022-09-14T20:22:13.693Z,2.35
2022-09-14T20:25:05.685Z,1.63
2022-09-14T20:27:53.154Z,1.90
2022-09-14T20:30:41.179Z,2.17
2022-09-14T20:33:29.402Z,1.77
2022-09-14T20:36:20.799Z,1.90
2022-09-14T20:39:09.195Z,2.50
2022-09-14T20:41:56.605Z,2.20
2022-09-14T20:44:44.134Z,2.20
2022-09-14T20:47:31.559Z,2.30
2022-09-14T20:50:18.978Z,2.25
2022-09-14T20:53:06.414Z,1.80
2022-09-14T20:56:26.202Z,2.10
2022-09-14T20:59:18.037Z,1.75
2022-09-14T21:02:05.917Z,1.77
2022-09-14T21:04:53.486Z,2.35
2022-09-14T21:07:40.974Z,2.95
2022-09-14T21:10:29.520Z,2.42
2022-09-14T21:13:17.208Z,2.70
2022-09-14T21:16:21.315Z,2.30
2022-09-14T21:19:24.249Z,1.90
2022-09-14T21:22:11.766Z,1.70
2022-09-14T21:24:59.175Z,4.78
2022-09-14T21:27:46.649Z,2.65
2022-09-14T21:30:34.159Z,2.10
2022-09-14T21:33:21.614Z,1.98
2022-09-14T21:36:13.990Z,2.35
2022-09-14T21:39:08.622Z,2.10
2022-09-14T21:41:59.333Z,2.30
2022-09-14T21:44:47.291Z,1.98
2022-09-14T21:47:34.839Z,2.20
2022-09-14T21:50:22.305Z,2.22
2022-09-14T21:53:10.098Z,2.40
2022-09-14T21:55:57.572Z,2.00
2022-09-14T21:58:51.290Z,2.30
2022-09-14T22:01:39.087Z,1.70
2022-09-14T22:04:26.999Z,2.30
2022-09-14T22:07:14.400Z,2.22
2022-09-14T22:10:01.854Z,2.17
2022-09-14T22:12:49.311Z,2.42
2022-09-14T22:15:36.788Z,2.20
2022-09-14T22:18:24.556Z,2.90
2022-09-14T22:21:11.905Z,2.53
2022-09-14T22:24:02.649Z,2.33
2022-09-14T22:26:50.644Z,2.97
2022-09-14T22:29:44.109Z,2.63
2022-09-14T22:32:31.561Z,2.60
2022-09-14T22:35:18.986Z,2.05
2022-09-14T22:38:08.189Z,2.80
2022-09-14T22:41:08.234Z,2.38
2022-09-14T22:43:57.050Z,2.65
2022-09-14T22:46:44.893Z,2.60
2022-09-14T22:49:32.286Z,2.95
2022-09-14T22:52:19.705Z,2.60
2022-09-14T22:55:07.821Z,2.35
2022-09-14T22:57:55.319Z,2.50
2022-09-14T23:00:44.396Z,2.60
2022-09-14T23:03:31.841Z,2.20
2022-09-14T23:06:19.294Z,2.35
2022-09-14T23:09:10.159Z,2.10
2022-09-14T23:11:57.760Z,2.40
2022-09-14T23:14:45.164Z,2.50
2022-09-14T23:17:32.670Z,2.70
2022-09-14T23:20:20.206Z,2.78
2022-09-14T23:23:08.541Z,2.92
2022-09-14T23:25:56.075Z,2.97
2022-09-14T23:28:43.562Z,2.83
2022-09-14T23:31:32.549Z,3.17
2022-09-14T23:34:19.991Z,2.63
2022-09-14T23:37:07.495Z,3.47
2022-09-14T23:39:54.991Z,3.67
2022-09-14T23:42:42.430Z,2.72
2022-09-14T23:45:29.857Z,2.75
2022-09-14T23:48:17.315Z,2.47
2022-09-14T23:51:08.820Z,3.40
2022-09-14T23:53:56.316Z,2.95
2022-09-14T23:56:44.014Z,3.00
2022-09-14T23:59:31.544Z,3.22
